Log in

NYSE:MUIBlackrock Muni Intermediate Drtn Fnd Institutional Ownership

$13.23
+0.08 (+0.61 %)
(As of 05/22/2020 04:00 PM ET)
Add
Compare
Today's Range
$13.16
Now: $13.23
$13.23
50-Day Range
$12.71
MA: $13.17
$13.73
52-Week Range
$10.46
Now: $13.23
$14.93
Volume27,429 shs
Average Volume111,806 shs
Market CapitalizationN/A
P/E RatioN/A
Dividend Yield0.04%
BetaN/A

Institutional Ownership

Institutional Ownership Changes (13F Filings) for Blackrock Muni Intermediate Drtn Fnd (NYSE:MUI)

 

Institutional Buying and Selling by Quarter


Blackrock Muni Intermediate Drtn Fnd (NYSE MUI) Institutional Buying and Selling

Reporting DateHedge FundShares HeldMarket Value% of PortfolioQuarterly Change in SharesOwnership in Company
5/21/2020HighTower Advisors LLC306,330$4M0.0%+15.0%0.000%
5/18/2020Karpus Management Inc.23,572$0.31M0.0%+13.9%0.000%
5/18/2020Mercer Global Advisors Inc. ADV78,794$1.03M0.0%-13.2%0.000%
5/18/2020Advisor Group Holdings Inc.64,946$0.85M0.0%N/A0.000%
5/15/2020Ameritas Investment Company LLC9,835$0.13M0.0%N/A0.000%
5/15/2020Morgan Stanley926,019$12.09M0.0%+21.5%0.000%
5/15/2020Advisors Asset Management Inc.183,852$2.40M0.1%+19.3%0.000%
5/15/2020Cohen & Steers Inc.70,844$0.93M0.0%N/A0.000%
5/14/2020Wells Fargo & Company MN2,996,672$39.14M0.0%0.0%0.000%
5/14/2020Wintrust Investments LLC12,338$0.16M0.0%+8.8%0.000%
5/14/2020Intellectus Partners LLC81,132$1.06M0.5%-7.7%0.000%
5/13/2020Thomas J. Herzfeld Advisors Inc.37,024$0.48M0.3%-35.3%0.000%
5/13/2020Parametric Portfolio Associates LLC3,005,363$39.25M0.0%+4.1%0.000%
5/13/2020Horizon Kinetics Asset Management LLC86,083$1.12M0.0%-1.2%0.000%
5/13/2020Oarsman Capital Inc.26,090$0.34M0.3%-68.2%0.000%
5/13/2020US Bancorp DE44,508$0.58M0.0%N/A0.000%
5/12/2020Moors & Cabot Inc.86,000$1.12M0.2%N/A0.000%
5/12/2020Van ECK Associates Corp160,904$2.10M0.0%-27.1%0.000%
5/12/2020Citigroup Inc.29,234$0.38M0.0%-9.2%0.000%
5/11/2020Commonwealth Equity Services LLC27,414$0.36M0.0%-4.7%0.000%
5/11/2020Pinnacle Wealth Planning Services Inc.10,693$0.14M0.1%-7.7%0.000%
5/8/2020Quadrant Private Wealth Management LLC35,850$0.47M0.4%-16.7%0.000%
5/8/2020Mackay Shields LLC997,348$13.03M0.1%+21.4%0.000%
5/7/2020Rock Point Advisors LLC83,651$1.09M0.6%+52.7%0.000%
5/7/2020ProVise Management Group LLC30,173$0.39M0.1%-22.0%0.000%
5/7/2020Benjamin F. Edwards & Company Inc.71,153$0.93M0.1%+32.9%0.000%
5/6/2020First Trust Advisors LP82,194$1.07M0.0%-2.1%0.000%
5/6/2020Family Management Corp73,396$0.96M0.5%+18.9%0.000%
5/5/2020Aviance Capital Partners LLC32,816$0.43M0.1%+5.0%0.000%
5/4/2020Stratos Wealth Partners LTD.13,460$0.18M0.0%-7.4%0.000%
5/1/2020UBS Group AG193,581$2.53M0.0%-9.4%0.000%
4/30/2020Janney Montgomery Scott LLC42,317$0.55M0.0%+34.7%0.000%
4/27/2020PenderFund Capital Management Ltd.300,000$5.51M1.7%N/A0.000%
4/23/2020Envestnet Asset Management Inc.77,088$1.01M0.0%-5.0%0.000%
4/23/2020Coastal Investment Advisors Inc.39,814$0.52M0.2%+165.4%0.000%
4/21/2020Raymond James & Associates161,459$2.11M0.0%-7.6%0.000%
4/21/2020Raymond James Financial Services Advisors Inc.19,937$0.26M0.0%-14.4%0.000%
4/14/20206 Meridian25,292$0.33M0.0%-33.9%0.000%
4/13/2020Capital Investment Advisors LLC273,895$3.58M0.2%+4.3%0.000%
4/7/2020Edmonds Duncan Registered Investment Advisors LLC125,733$1.64M0.8%+8.2%0.000%
2/28/2020Ackerman Capital Advisors LLC26,772$0.38M0.1%+27.1%0.000%
2/26/2020Sunbelt Securities Inc.3,161$11.25M0.1%N/A0.000%
2/17/2020Ladenburg Thalmann Financial Services Inc.54,866$0.78M0.0%+5.1%0.000%
2/14/2020Advisors Asset Management Inc.154,059$2.19M0.0%+21.8%0.000%
2/14/2020Bank of America Corp DE553,771$7.89M0.0%+10.8%0.000%
2/14/2020Guggenheim Capital LLC118,199$1.68M0.0%-24.3%0.000%
2/14/2020UBS Group AG213,725$3.04M0.0%+6.4%0.000%
2/14/2020Capital Wealth Alliance LLC1,760$26K0.0%N/A0.000%
2/13/2020Van ECK Associates Corp220,638$3.14M0.0%+14.6%0.000%
2/13/2020Mercer Global Advisors Inc. ADV90,822$1.29M0.0%-5.7%0.000%
2/12/2020Matisse Capital282,516$4.02M2.9%N/A0.000%
2/12/2020Advisor Group Inc.15,395$0.22M0.0%-32.7%0.000%
2/12/2020Raymond James & Associates174,725$2.49M0.0%-22.0%0.000%
2/12/2020Citigroup Inc.32,212$0.46M0.0%N/A0.000%
2/11/2020Envestnet Asset Management Inc.81,140$1.16M0.0%N/A0.000%
2/11/2020Landscape Capital Management L.L.C.59,056$0.84M0.1%+10.1%0.000%
2/11/2020Mariner Investment Group LLC17,392$0.25M0.3%-39.5%0.000%
2/11/2020Vivaldi Capital Management LLC307,993$4.39M1.1%+15.3%0.000%
2/7/2020Independent Advisor Alliance73,218$1.04M0.0%N/A0.000%
2/7/2020Aviance Capital Partners LLC31,255$0.45M0.1%+20.4%0.000%
2/7/2020Pinnacle Wealth Planning Services Inc.11,580$0.16M0.1%N/A0.000%
2/6/2020Benjamin F. Edwards & Company Inc.53,538$0.76M0.1%+20.4%0.000%
2/6/2020Robinson Capital Management LLC490,579$6.99M2.5%-3.3%0.000%
2/6/2020Rock Point Advisors LLC54,766$0.78M0.3%+51.7%0.000%
2/4/2020SMH Capital Advisors Inc.10,551$0.15M0.3%N/A0.000%
2/4/2020Park Avenue Securities LLC17,688$0.25M0.0%+18.4%0.000%
2/3/2020First Trust Advisors LP83,977$1.20M0.0%-7.2%0.000%
2/1/2020Edmonds Duncan Registered Investment Advisors LLC116,183$1.65M0.7%-5.2%0.000%
1/29/2020Stratos Wealth Partners LTD.14,534$0.21M0.0%+8.7%0.000%
1/29/2020Walter & Keenan Financial Consulting Co. MI ADV48,000$0.68M0.3%+7.9%0.000%
1/27/2020Wakefield Asset Management LLLP55,768$0.79M0.3%+1.8%0.000%
1/24/2020Intellectus Partners LLC87,888$1.25M0.5%+20.3%0.000%
1/21/2020Capital Investment Advisors LLC262,516$3.74M0.1%+4.9%0.000%
1/15/2020Shulman DeMeo Asset Management LLC21,376$0.30M0.1%N/A0.000%
1/14/20206 Meridian38,273$0.55M0.0%+4.0%0.000%
1/10/2020E&G Advisors LP49,000$0.70M0.3%+14.0%0.000%
11/27/2019Family Management Corp59,754$0.85M0.3%+34.6%0.000%
11/27/2019Parametric Portfolio Associates LLC2,751,437$39.02M0.0%+1.7%0.000%
11/5/2019Benjamin F. Edwards & Company Inc.44,462$0.63M0.0%+630.3%0.000%
11/4/2019First Trust Advisors LP90,511$1.28M0.0%-5.1%0.000%
11/1/2019Mackay Shields LLC821,500$11.65M0.1%+2.7%0.000%
10/30/2019Commonwealth Equity Services LLC27,232$0.39M0.0%+10.0%0.000%
10/29/2019PenderFund Capital Management Ltd.180,000$2.53M0.8%-47.1%0.000%
10/29/2019Janney Montgomery Scott LLC31,405$0.45M0.0%+18.9%0.000%
10/25/2019Wakefield Asset Management LLLP54,761$0.78M0.3%+7.3%0.000%
10/24/2019Capital Investment Advisors LLC250,371$3.55M0.2%+4.5%0.000%
10/18/2019Coastal Investment Advisors Inc.15,000$0.21M0.1%+17.8%0.000%
10/18/2019Park Avenue Securities LLC14,941$0.21M0.0%+6.6%0.000%
10/16/2019Karpus Management Inc.20,698$0.29M0.0%-70.9%0.000%
10/11/2019Welch & Forbes LLC122,150$1.73M0.0%-3.9%0.000%
10/11/2019Intellectus Partners LLC73,038$1.04M0.5%+4.1%0.000%
10/9/2019Ackerman Capital Advisors LLC21,066$0.30M0.1%N/A0.000%
10/7/2019Robinson Capital Management LLC507,294$7.22M2.4%-0.5%0.000%
8/17/2019Royal Bank of Canada400,929$5.63M0.0%+385.4%0.000%
8/17/2019Ladenburg Thalmann Financial Services Inc.51,979$0.73M0.0%-2.2%0.000%
8/14/2019Rivernorth Capital Management LLC40,795$0.57M0.0%-56.7%0.000%
8/14/2019Vivaldi Capital Management LLC248,104$3.49M0.9%+28.9%0.000%
8/14/2019Morgan Stanley722,053$10.15M0.0%+5.9%0.000%
8/14/2019Bank of America Corp DE420,184$5.90M0.0%+11.9%0.000%
8/13/2019HighTower Advisors LLC260,110$3.66M0.0%+6.2%0.000%
(Data available from 1/1/2016 forward)
This page was last updated on 5/25/2020 by MarketBeat.com Staff

Enter your email address below to receive a concise daily summary of analysts' upgrades, downgrades and new coverage with MarketBeat.com's FREE daily email newsletter.